Time;durP1;ratioP1;P1;durP2;ratioP2;P2;SDS_P1;SDS_P2;PMS_P1;PMS_P2;Temp;Humidity;BMP_temperature;BMP_pressure;BME280_temperature;BME280_humidity;BME280_pressure;Samples;Min_cycle;Max_cycle;Signal;HPM_P1;HPM_P2
2023/01/27 00:00:55;;;;;;;13.05;2.63;;;;;;;5.90;69.16;102377.81;5030303;28;20079;-66
2023/01/27 00:03:21;;;;;;;13.52;3.35;;;;;;;5.91;69.54;102371.25;5030611;28;20384;-65
2023/01/27 00:05:46;;;;;;;12.68;2.70;;;;;;;5.88;69.66;102366.09;5029603;28;20033;-65
2023/01/27 00:08:12;;;;;;;10.60;3.03;;;;;;;5.89;69.01;102368.69;5030374;28;20120;-65
2023/01/27 00:10:38;;;;;;;14.98;2.92;;;;;;;5.89;69.49;102370.56;5036881;28;20469;-66
2023/01/27 00:15:47;;;;;;;11.00;3.25;;;;;;;5.89;69.34;102365.94;5050298;28;20048;-65
2023/01/27 00:18:12;;;;;;;16.35;3.08;;;;;;;5.88;69.75;102366.94;5052007;28;20449;-65
2023/01/27 00:26:17;;;;;;;13.30;2.80;;;;;;;5.90;69.87;102361.28;5039824;28;20093;-65
2023/01/27 00:28:44;;;;;;;13.18;2.88;;;;;;;5.90;69.66;102358.50;5051675;28;20391;-65
2023/01/27 00:34:00;;;;;;;11.38;3.05;;;;;;;5.87;69.21;102373.50;5053031;28;20202;-65
2023/01/27 00:36:27;;;;;;;9.80;2.80;;;;;;;5.87;69.63;102361.63;5053749;28;20056;-65
2023/01/27 00:38:53;;;;;;;12.23;3.22;;;;;;;5.86;69.88;102360.78;5053149;28;20053;-65
2023/01/27 00:41:18;;;;;;;9.57;3.08;;;;;;;5.85;69.83;102363.72;5051977;28;20032;-65
2023/01/27 00:43:52;;;;;;;13.80;2.95;;;;;;;5.84;69.51;102362.84;5046220;28;20047;-65
2023/01/27 00:46:20;;;;;;;15.35;3.05;;;;;;;5.84;69.41;102373.03;5053870;28;20032;-66
2023/01/27 00:48:45;;;;;;;10.88;2.97;;;;;;;5.84;69.55;102365.59;5052325;28;20029;-65
2023/01/27 00:51:12;;;;;;;10.07;2.80;;;;;;;5.84;68.91;102373.03;5053504;28;20028;-66
2023/01/27 00:53:38;;;;;;;10.05;3.33;;;;;;;5.84;69.51;102367.50;5052296;28;20040;-65
2023/01/27 00:56:05;;;;;;;15.60;3.00;;;;;;;5.82;69.45;102372.38;5052433;28;20033;-65
2023/01/27 00:58:30;;;;;;;15.38;3.85;;;;;;;5.81;69.42;102374.22;5042817;28;20037;-65
2023/01/27 01:00:58;;;;;;;9.07;3.47;;;;;;;5.82;69.23;102370.47;5032830;28;20412;-66
2023/01/27 01:03:24;;;;;;;13.75;3.53;;;;;;;5.81;69.65;102379.75;5033455;28;20531;-65
2023/01/27 01:05:49;;;;;;;12.85;3.28;;;;;;;5.81;69.40;102374.22;5050313;28;20024;-65
2023/01/27 01:08:15;;;;;;;11.88;3.25;;;;;;;5.80;69.27;102378.03;5031392;28;20037;-65
2023/01/27 01:10:41;;;;;;;12.27;3.65;;;;;;;5.82;69.33;102375.13;5017358;28;20096;-66
2023/01/27 01:13:08;;;;;;;9.60;3.17;;;;;;;5.81;69.65;102376.13;5033508;28;20075;-65
2023/01/27 01:15:35;;;;;;;11.70;3.67;;;;;;;5.81;69.89;102367.88;5032272;28;20030;-65
2023/01/27 01:18:02;;;;;;;11.80;3.15;;;;;;;5.80;69.69;102382.69;5033122;28;20021;-66
2023/01/27 01:20:27;;;;;;;11.95;3.67;;;;;;;5.80;69.45;102377.19;5032577;28;20468;-66
2023/01/27 01:22:52;;;;;;;13.00;3.67;;;;;;;5.79;69.82;102389.25;5051746;28;20029;-65
2023/01/27 01:25:18;;;;;;;16.23;3.80;;;;;;;5.78;69.57;102390.31;5043894;28;20115;-65
2023/01/27 01:27:44;;;;;;;11.35;3.10;;;;;;;5.73;69.68;102393.59;5035460;28;20072;-65
2023/01/27 01:30:10;;;;;;;11.77;3.65;;;;;;;5.73;69.82;102398.25;5031547;28;20101;-65
2023/01/27 01:32:35;;;;;;;10.93;3.28;;;;;;;5.71;69.54;102392.06;5033333;28;20030;-65
2023/01/27 01:35:01;;;;;;;12.70;3.28;;;;;;;5.72;69.52;102391.88;5032542;28;20432;-66
2023/01/27 01:37:26;;;;;;;12.75;3.63;;;;;;;5.72;70.05;102388.28;5032134;28;20051;-65
2023/01/27 01:39:51;;;;;;;10.85;4.10;;;;;;;5.73;69.33;102393.59;5052154;28;20036;-66
2023/01/27 01:42:17;;;;;;;14.70;3.47;;;;;;;5.68;70.43;102398.81;5047136;28;20045;-65
2023/01/27 01:44:43;;;;;;;15.35;4.13;;;;;;;5.69;70.21;102392.25;5031300;28;20421;-65
2023/01/27 01:47:15;;;;;;;14.15;3.92;;;;;;;5.69;70.19;102397.75;5032596;28;20132;-65
2023/01/27 01:49:42;;;;;;;11.80;3.83;;;;;;;5.73;70.35;102390.84;5035536;28;20029;-65
2023/01/27 01:52:12;;;;;;;11.65;3.53;;;;;;;5.72;69.71;102399.28;5051945;28;20136;-65
2023/01/27 01:54:48;;;;;;;13.38;4.32;;;;;;;5.72;70.08;102397.38;5050496;28;20106;-65
2023/01/27 01:57:19;;;;;;;12.10;3.95;;;;;;;5.74;69.90;102399.94;5051644;28;20024;-65
2023/01/27 01:59:59;;;;;;;14.65;4.18;;;;;;;5.73;70.14;102395.50;5051750;28;20075;-65
2023/01/27 02:02:25;;;;;;;13.38;4.32;;;;;;;5.73;70.42;102398.25;5041461;28;20087;-66
2023/01/27 02:04:56;;;;;;;14.27;3.70;;;;;;;5.70;70.77;102395.84;5051614;28;20032;-65
2023/01/27 02:08:16;;;;;;;15.32;4.13;;;;;;;5.70;70.65;102393.09;5051870;28;20033;-65
2023/01/27 02:10:41;;;;;;;11.38;3.88;;;;;;;5.67;69.65;102405.34;4990115;28;20058;-66
2023/01/27 02:13:07;;;;;;;12.00;4.47;;;;;;;5.64;69.35;102400.22;5037419;28;20148;-65
2023/01/27 02:15:33;;;;;;;10.13;4.10;;;;;;;5.60;69.37;102388.69;5052046;28;20025;-65
2023/01/27 02:17:59;;;;;;;10.73;4.35;;;;;;;5.61;69.48;102393.16;5038391;28;20029;-65
2023/01/27 02:20:38;;;;;;;13.68;4.47;;;;;;;5.62;69.09;102396.78;5051848;28;20116;-65
2023/01/27 02:23:37;;;;;;;12.73;4.50;;;;;;;5.64;69.52;102392.78;5051476;28;20049;-65
2023/01/27 02:26:12;;;;;;;11.25;3.70;;;;;;;5.61;68.75;102398.66;5051327;28;20067;-65
2023/01/27 02:28:37;;;;;;;10.20;4.47;;;;;;;5.57;68.88;102391.81;5050102;28;20062;-65
2023/01/27 02:31:03;;;;;;;7.10;3.92;;;;;;;5.56;69.32;102403.03;5050489;28;20442;-65
2023/01/27 02:33:28;;;;;;;10.60;4.20;;;;;;;5.53;69.33;102400.63;5048948;28;20891;-65
2023/01/27 02:36:07;;;;;;;10.90;4.45;;;;;;;5.55;69.52;102401.31;5034878;28;20029;-65
2023/01/27 02:38:37;;;;;;;12.43;4.45;;;;;;;5.54;68.97;102418.84;5046660;28;20049;-66
2023/01/27 02:41:10;;;;;;;8.70;3.72;;;;;;;5.55;69.00;102413.19;5047544;28;20037;-66
2023/01/27 02:43:36;;;;;;;13.10;4.50;;;;;;;5.55;69.16;102418.69;5050274;28;20028;-65
2023/01/27 02:46:01;;;;;;;11.45;4.97;;;;;;;5.54;68.88;102410.59;5048720;28;20017;-65
2023/01/27 02:48:26;;;;;;;11.73;5.05;;;;;;;5.56;69.32;102411.28;5049300;28;20484;-65
2023/01/27 02:50:51;;;;;;;8.93;4.68;;;;;;;5.56;68.89;102420.41;5050018;28;20029;-65
2023/01/27 02:53:17;;;;;;;8.75;4.50;;;;;;;5.55;69.32;102424.19;5040790;28;20048;-65
2023/01/27 02:55:42;;;;;;;15.27;4.78;;;;;;;5.57;68.92;102410.22;5039899;28;20038;-65
2023/01/27 02:58:07;;;;;;;14.18;4.65;;;;;;;5.52;69.18;102424.56;5049847;28;20029;-65
2023/01/27 03:00:33;;;;;;;9.88;4.75;;;;;;;5.55;69.29;102420.59;5049058;28;20064;-65
2023/01/27 03:02:59;;;;;;;12.68;5.10;;;;;;;5.51;69.21;102414.59;5045230;28;20029;-65
2023/01/27 03:05:25;;;;;;;9.85;4.70;;;;;;;5.51;69.03;102410.97;5034382;28;20032;-65
2023/01/27 03:07:50;;;;;;;9.57;4.85;;;;;;;5.48;69.48;102414.09;5046317;28;20524;-65
2023/01/27 03:10:15;;;;;;;11.57;5.45;;;;;;;5.50;69.62;102418.38;5039268;28;20094;-65
2023/01/27 03:12:42;;;;;;;14.32;5.30;;;;;;;5.53;69.26;102430.91;5049795;28;20481;-65
2023/01/27 03:18:11;;;;;;;12.73;5.32;;;;;;;5.50;69.45;102421.13;5048671;28;20150;-65
2023/01/27 03:20:41;;;;;;;9.77;5.63;;;;;;;5.50;69.52;102423.91;5050139;28;20476;-65
2023/01/27 03:23:06;;;;;;;13.60;5.93;;;;;;;5.52;69.46;102423.69;5049137;28;20025;-65
2023/01/27 03:25:32;;;;;;;11.55;5.88;;;;;;;5.51;69.64;102422.00;5045912;28;20025;-66
2023/01/27 03:27:58;;;;;;;13.20;6.57;;;;;;;5.49;69.48;102424.91;5031566;28;20048;-64
2023/01/27 03:30:24;;;;;;;14.98;7.20;;;;;;;5.50;69.44;102431.28;5051171;28;20124;-64
2023/01/27 03:32:49;;;;;;;15.38;6.68;;;;;;;5.47;69.82;102431.66;5051091;28;20104;-65
2023/01/27 03:35:15;;;;;;;13.00;6.68;;;;;;;5.47;69.31;102423.41;5055401;28;20434;-66
2023/01/27 03:48:39;;;;;;;14.68;7.32;;;;;;;5.45;70.10;102448.34;5031148;28;20053;-66
2023/01/27 03:51:07;;;;;;;15.15;7.63;;;;;;;5.44;69.64;102454.91;5030428;28;20453;-67
2023/01/27 03:53:34;;;;;;;16.77;7.40;;;;;;;5.45;69.82;102455.75;5035846;28;20056;-66
2023/01/27 03:55:59;;;;;;;16.67;8.07;;;;;;;5.40;70.00;102448.88;5057212;28;20051;-66
2023/01/27 03:58:29;;;;;;;17.85;8.18;;;;;;;5.44;69.80;102460.41;5057076;28;20040;-66
2023/01/27 04:01:00;;;;;;;15.45;9.02;;;;;;;5.43;69.87;102455.94;5049329;28;20029;-66
2023/01/27 04:09:05;;;;;;;14.27;8.52;;;;;;;5.41;70.43;102455.25;5039264;28;20476;-66
2023/01/27 04:14:14;;;;;;;15.52;8.07;;;;;;;5.46;70.81;102458.31;5058548;28;20040;-65
2023/01/27 04:16:40;;;;;;;13.75;9.15;;;;;;;5.42;71.15;102462.47;5057000;28;20041;-63
2023/01/27 04:19:12;;;;;;;15.32;9.30;;;;;;;5.40;71.14;102459.06;5044505;28;20080;-64
2023/01/27 04:21:38;;;;;;;19.08;9.50;;;;;;;5.38;71.14;102453.72;5037822;28;20381;-65
2023/01/27 04:24:07;;;;;;;19.55;9.68;;;;;;;5.36;71.11;102458.56;5037708;28;20022;-65
2023/01/27 04:26:33;;;;;;;17.50;9.30;;;;;;;5.37;71.74;102453.91;5036371;28;20083;-64
2023/01/27 04:29:02;;;;;;;16.30;9.23;;;;;;;5.38;71.47;102450.09;5049103;28;20029;-64
2023/01/27 04:31:28;;;;;;;18.17;10.30;;;;;;;5.39;71.77;102446.31;5057555;28;20051;-65
2023/01/27 04:33:53;;;;;;;15.43;9.80;;;;;;;5.39;71.63;102451.84;5055482;28;20484;-65
2023/01/27 04:36:19;;;;;;;17.77;9.30;;;;;;;5.38;71.52;102456.50;5037576;28;20481;-64
2023/01/27 04:38:44;;;;;;;21.27;10.85;;;;;;;5.38;71.51;102459.25;5036676;28;20049;-65
2023/01/27 04:41:10;;;;;;;20.83;10.95;;;;;;;5.38;71.42;102463.88;5037236;28;20047;-65
2023/01/27 04:43:35;;;;;;;17.00;10.82;;;;;;;5.40;71.74;102467.31;5037044;28;20116;-64
2023/01/27 04:46:00;;;;;;;17.85;10.77;;;;;;;5.39;72.04;102463.69;5048958;28;20060;-64
2023/01/27 04:48:26;;;;;;;17.85;10.93;;;;;;;5.41;72.26;102466.25;5055487;28;20048;-64
2023/01/27 04:50:51;;;;;;;22.48;11.85;;;;;;;5.40;71.24;102462.66;5056947;28;20029;-63
2023/01/27 04:53:16;;;;;;;17.33;11.38;;;;;;;5.33;71.84;102469.06;5048083;28;20469;-65
2023/01/27 04:55:46;;;;;;;18.85;12.40;;;;;;;5.32;71.87;102472.84;5049282;28;20033;-65
2023/01/27 04:58:12;;;;;;;21.10;12.65;;;;;;;5.27;71.41;102475.31;5056585;28;20539;-65
2023/01/27 05:00:38;;;;;;;21.60;13.02;;;;;;;5.28;71.80;102471.50;5055948;28;20112;-65
2023/01/27 05:03:04;;;;;;;25.45;13.63;;;;;;;5.27;72.01;102478.91;5055027;28;20554;-65
2023/01/27 05:05:30;;;;;;;20.10;12.25;;;;;;;5.29;71.17;102478.72;5051829;28;20078;-65
2023/01/27 05:07:55;;;;;;;18.50;12.43;;;;;;;5.32;71.16;102472.84;5052557;28;20045;-65
2023/01/27 05:10:21;;;;;;;19.05;12.82;;;;;;;5.32;71.17;102479.22;5043447;28;20065;-65
2023/01/27 05:12:46;;;;;;;20.48;13.18;;;;;;;5.34;70.95;102490.03;5037058;28;20021;-65
2023/01/27 05:15:11;;;;;;;17.98;12.63;;;;;;;5.34;70.80;102503.81;5037776;28;20052;-66
2023/01/27 05:17:36;;;;;;;17.05;12.07;;;;;;;5.29;69.95;102496.09;5053205;28;20021;-66
2023/01/27 05:20:03;;;;;;;15.23;12.63;;;;;;;5.30;70.94;102496.94;5052572;28;20035;-65
2023/01/27 05:22:28;;;;;;;19.95;12.52;;;;;;;5.30;70.02;102492.28;5052638;28;20060;-65
2023/01/27 05:24:53;;;;;;;18.05;12.07;;;;;;;5.28;70.07;102497.13;5052136;28;20037;-66
2023/01/27 05:27:19;;;;;;;15.88;12.10;;;;;;;5.26;70.17;102501.09;5051820;28;20037;-65
2023/01/27 05:29:44;;;;;;;17.20;12.20;;;;;;;5.28;70.17;102508.16;5041959;28;20086;-65
2023/01/27 05:32:09;;;;;;;16.35;12.02;;;;;;;5.26;69.99;102509.34;5052801;28;20064;-65
2023/01/27 05:34:35;;;;;;;18.33;12.65;;;;;;;5.25;70.23;102513.16;5052562;28;20087;-66
2023/01/27 05:37:00;;;;;;;15.95;13.43;;;;;;;5.25;70.29;102514.00;5051612;28;20472;-65
2023/01/27 05:39:25;;;;;;;17.23;13.05;;;;;;;5.27;70.52;102514.69;5052633;28;20053;-65
2023/01/27 05:41:51;;;;;;;16.70;12.68;;;;;;;5.22;70.40;102514.34;5039039;28;20033;-65
2023/01/27 05:44:16;;;;;;;16.85;12.30;;;;;;;5.23;70.08;102509.72;5032448;28;20041;-65
2023/01/27 05:46:41;;;;;;;16.40;12.40;;;;;;;5.26;69.84;102512.94;5030050;28;20183;-65
2023/01/27 05:49:07;;;;;;;16.50;12.55;;;;;;;5.22;69.42;102519.00;5031942;28;20026;-65
2023/01/27 05:51:39;;;;;;;15.75;11.20;;;;;;;5.17;69.39;102514.03;5032067;28;20022;-65
2023/01/27 05:54:05;;;;;;;13.98;11.40;;;;;;;5.12;69.17;102516.47;5043877;28;20462;-65
2023/01/27 05:56:31;;;;;;;17.38;13.07;;;;;;;5.12;70.16;102521.97;5051599;28;20048;-65
2023/01/27 05:58:57;;;;;;;15.50;12.23;;;;;;;5.14;70.17;102528.13;5031797;28;20044;-65
2023/01/27 06:01:29;;;;;;;16.02;12.38;;;;;;;5.15;70.25;102522.47;5031346;28;20036;-65
2023/01/27 06:03:54;;;;;;;15.50;11.25;;;;;;;5.18;70.03;102524.84;5030171;28;20041;-65
2023/01/27 06:06:22;;;;;;;16.20;12.18;;;;;;;5.18;69.50;102529.50;5032458;28;20034;-66
2023/01/27 06:08:47;;;;;;;15.23;12.10;;;;;;;5.19;69.91;102528.50;5031465;28;20025;-65
2023/01/27 06:11:14;;;;;;;15.40;12.32;;;;;;;5.18;69.78;102532.25;5045378;28;20020;-65
2023/01/27 06:13:40;;;;;;;14.57;11.65;;;;;;;5.16;69.71;102537.94;5049045;28;20040;-65
2023/01/27 06:16:11;;;;;;;14.27;12.05;;;;;;;5.14;69.94;102523.50;5040941;28;20440;-65
2023/01/27 06:18:37;;;;;;;16.77;12.05;;;;;;;5.12;69.69;102522.81;5044514;28;20510;-64
2023/01/27 06:21:05;;;;;;;14.10;11.63;;;;;;;5.14;69.74;102531.75;5052067;28;20123;-65
2023/01/27 06:23:31;;;;;;;14.73;11.45;;;;;;;5.16;69.81;102535.19;5052026;28;20805;-64
2023/01/27 06:26:01;;;;;;;14.23;11.45;;;;;;;5.18;69.94;102533.09;5032725;28;20117;-65
2023/01/27 06:28:26;;;;;;;14.63;12.18;;;;;;;5.18;70.05;102538.63;5043793;28;20104;-65
2023/01/27 06:30:52;;;;;;;15.52;11.77;;;;;;;5.22;69.88;102541.88;5044221;28;20035;-65
2023/01/27 06:33:17;;;;;;;16.02;11.98;;;;;;;5.21;69.97;102542.91;5046519;28;20036;-65
2023/01/27 06:35:42;;;;;;;15.43;11.38;;;;;;;5.23;69.69;102543.63;5047660;28;20033;-65
2023/01/27 06:38:11;;;;;;;13.32;11.20;;;;;;;5.25;69.51;102546.19;5040139;28;20110;-65
2023/01/27 06:40:37;;;;;;;13.35;11.32;;;;;;;5.30;69.88;102538.25;5050271;28;20025;-65
2023/01/27 06:43:03;;;;;;;14.57;11.60;;;;;;;5.31;69.75;102551.00;5043772;28;20024;-65
2023/01/27 06:45:28;;;;;;;14.65;11.13;;;;;;;5.30;69.20;102541.84;5048118;28;20033;-65
2023/01/27 06:47:55;;;;;;;11.93;10.73;;;;;;;5.31;69.30;102549.09;5048805;28;20036;-65
2023/01/27 06:50:21;;;;;;;13.20;10.65;;;;;;;5.32;68.99;102547.19;5049969;28;20033;-65
2023/01/27 06:52:46;;;;;;;11.70;10.35;;;;;;;5.31;69.00;102546.34;5038873;28;20032;-65
2023/01/27 06:55:12;;;;;;;12.52;10.65;;;;;;;5.33;69.27;102551.66;5045882;28;20024;-65
2023/01/27 06:57:38;;;;;;;13.40;11.07;;;;;;;5.32;69.31;102550.81;5047946;28;20128;-65
2023/01/27 07:00:04;;;;;;;12.98;10.38;;;;;;;5.37;69.22;102542.88;5047156;28;20025;-65
2023/01/27 07:02:29;;;;;;;12.63;10.05;;;;;;;5.38;69.35;102551.97;5043891;28;20110;-65
2023/01/27 07:04:54;;;;;;;13.57;9.77;;;;;;;5.40;68.91;102555.44;5049547;28;20032;-65
2023/01/27 07:07:20;;;;;;;11.10;9.90;;;;;;;5.42;69.04;102550.59;5045520;28;20033;-65
2023/01/27 07:09:45;;;;;;;11.88;10.55;;;;;;;5.41;69.08;102548.88;5036126;28;20040;-67
2023/01/27 07:12:10;;;;;;;11.65;9.80;;;;;;;5.43;68.70;102548.72;5046129;28;20036;-65
2023/01/27 07:14:36;;;;;;;13.23;10.15;;;;;;;5.43;68.63;102552.31;5037582;28;20036;-66
2023/01/27 07:17:01;;;;;;;10.25;8.95;;;;;;;5.42;68.71;102550.59;5046628;28;20032;-67
2023/01/27 07:19:26;;;;;;;10.63;9.23;;;;;;;5.46;68.91;102551.09;5041912;28;20492;-67
2023/01/27 07:21:52;;;;;;;11.15;9.23;;;;;;;5.45;68.19;102550.25;5046036;28;20037;-67
2023/01/27 07:24:18;;;;;;;11.43;8.45;;;;;;;5.46;68.18;102557.44;5031864;28;20029;-67
2023/01/27 07:26:46;;;;;;;10.60;9.10;;;;;;;5.47;68.46;102556.44;5037467;28;20047;-67
2023/01/27 07:29:12;;;;;;;8.88;7.97;;;;;;;5.47;68.73;102564.69;5048288;28;20029;-67
2023/01/27 07:31:37;;;;;;;11.02;7.28;;;;;;;5.47;68.63;102564.69;5049026;28;20407;-67
2023/01/27 07:34:02;;;;;;;10.13;8.00;;;;;;;5.50;68.11;102563.47;5037285;28;20078;-70
2023/01/27 07:36:27;;;;;;;10.18;8.32;;;;;;;5.51;68.41;102559.69;5043705;28;20072;-69
2023/01/27 07:38:53;;;;;;;9.95;8.18;;;;;;;5.51;68.59;102565.22;5045637;28;20037;-67
2023/01/27 07:41:18;;;;;;;10.68;8.43;;;;;;;5.49;68.57;102573.63;5047520;28;20601;-69
2023/01/27 07:43:43;;;;;;;9.20;7.50;;;;;;;5.51;67.51;102574.31;5044700;28;20526;-69
2023/01/27 07:46:09;;;;;;;24.50;8.85;;;;;;;5.78;70.69;102577.66;5047136;28;20100;-70
2023/01/27 07:48:34;;;;;;;9.88;7.10;;;;;;;5.76;67.71;102560.44;5034867;28;20526;-70
2023/01/27 07:50:59;;;;;;;7.80;6.97;;;;;;;5.74;67.31;102574.41;5027931;28;20033;-72
2023/01/27 07:53:25;;;;;;;9.57;8.40;;;;;;;5.67;67.96;102576.16;5043974;28;20392;-71
2023/01/27 07:55:50;;;;;;;17.40;11.82;;;;;;;5.67;67.40;102587.19;5047611;28;20025;-72
2023/01/27 07:58:15;;;;;;;17.98;12.68;;;;;;;5.65;67.30;102590.09;5048521;28;20099;-71
2023/01/27 08:00:41;;;;;;;16.15;11.80;;;;;;;5.63;67.34;102581.16;5047778;28;20468;-69
2023/01/27 08:03:06;;;;;;;15.32;11.55;;;;;;;5.58;67.60;102583.59;5041364;28;20033;-69
2023/01/27 08:05:33;;;;;;;13.95;11.20;;;;;;;5.56;67.26;102584.81;5036600;28;20228;-72
2023/01/27 08:08:02;;;;;;;12.50;9.40;;;;;;;5.56;67.45;102584.81;5041446;28;20594;-70
2023/01/27 08:10:28;;;;;;;11.05;8.32;;;;;;;5.55;67.46;102578.44;5036177;28;20072;-73
2023/01/27 08:12:53;;;;;;;9.13;7.72;;;;;;;5.54;67.77;102576.72;5044813;28;20088;-73
2023/01/27 08:15:18;;;;;;;10.95;7.60;;;;;;;5.55;67.33;102577.59;5047039;28;20653;-72
2023/01/27 08:17:44;;;;;;;9.82;7.80;;;;;;;5.54;67.47;102590.50;5046064;28;20029;-75
2023/01/27 08:20:10;;;;;;;7.82;6.50;;;;;;;5.50;67.75;102583.63;5047437;28;20037;-74
2023/01/27 08:22:35;;;;;;;10.40;7.03;;;;;;;5.50;67.30;102586.38;5039520;28;20045;-73
2023/01/27 08:25:00;;;;;;;7.68;6.70;;;;;;;5.50;67.88;102585.50;5045749;28;20126;-75
2023/01/27 08:27:26;;;;;;;7.93;6.88;;;;;;;5.46;67.40;102595.16;5047923;28;20112;-72
2023/01/27 08:29:52;;;;;;;8.23;7.05;;;;;;;5.42;67.92;102589.13;5045837;28;20720;-75
2023/01/27 08:32:17;;;;;;;10.45;7.15;;;;;;;5.41;68.09;102587.44;5046307;28;20087;-72
2023/01/27 08:34:42;;;;;;;8.18;7.40;;;;;;;5.45;68.27;102594.31;5040856;28;20112;-67
2023/01/27 08:37:08;;;;;;;8.35;7.38;;;;;;;5.45;68.56;102593.44;5044223;28;20092;-67
2023/01/27 08:39:33;;;;;;;8.57;7.18;;;;;;;5.47;68.59;102600.50;5044051;28;20021;-67
2023/01/27 08:41:59;;;;;;;8.85;7.35;;;;;;;5.57;69.83;102598.38;5050370;28;20049;-67
2023/01/27 08:44:27;;;;;;;7.82;6.90;;;;;;;5.55;68.42;102606.00;5047150;28;20435;-67
2023/01/27 08:46:52;;;;;;;9.70;6.93;;;;;;;5.52;68.61;102606.34;5046914;28;20538;-66
2023/01/27 08:49:19;;;;;;;7.80;6.93;;;;;;;5.54;68.08;102609.78;5047941;28;20029;-67
2023/01/27 08:51:44;;;;;;;8.07;6.53;;;;;;;5.56;68.62;102606.84;5047766;28;20855;-72
2023/01/27 08:54:10;;;;;;;7.75;6.63;;;;;;;5.55;68.52;102619.75;5051166;28;20136;-71
2023/01/27 08:56:35;;;;;;;7.40;6.70;;;;;;;5.58;68.62;102615.78;5039607;28;20087;-69
2023/01/27 08:59:01;;;;;;;7.13;6.10;;;;;;;5.58;68.60;102616.66;5046108;28;20068;-71
2023/01/27 09:01:26;;;;;;;7.05;6.35;;;;;;;5.58;68.36;102621.28;5048451;28;20029;-69
2023/01/27 09:03:51;;;;;;;7.80;6.63;;;;;;;5.60;68.90;102633.84;5051253;28;20043;-71
2023/01/27 09:06:17;;;;;;;7.13;6.38;;;;;;;5.60;68.31;102636.59;5047377;28;20025;-68
2023/01/27 09:08:43;;;;;;;7.35;6.65;;;;;;;5.58;68.57;102644.19;5047707;28;20052;-70
2023/01/27 09:11:16;;;;;;;9.13;5.78;;;;;;;5.56;68.09;102649.00;5046856;28;20122;-69
2023/01/27 09:13:42;;;;;;;6.50;5.90;;;;;;;5.58;68.66;102632.28;5051249;28;20033;-68
2023/01/27 09:16:08;;;;;;;9.20;6.80;;;;;;;5.58;68.13;102638.69;5044795;28;20036;-69
2023/01/27 09:18:34;;;;;;;6.80;6.10;;;;;;;5.59;68.27;102645.06;5049452;28;20040;-67
2023/01/27 09:21:04;;;;;;;9.60;6.35;;;;;;;5.59;68.48;102645.91;5047696;28;20059;-68
2023/01/27 09:23:30;;;;;;;7.45;6.75;;;;;;;5.61;68.16;102635.56;5046739;28;20044;-68
2023/01/27 09:25:55;;;;;;;6.35;5.75;;;;;;;5.61;67.44;102637.47;5048870;28;20033;-68
2023/01/27 09:28:20;;;;;;;5.95;5.35;;;;;;;5.60;67.91;102636.59;5049607;28;20654;-67
2023/01/27 09:30:46;;;;;;;8.00;6.03;;;;;;;5.59;68.00;102642.31;5049940;28;20132;-67
2023/01/27 09:33:12;;;;;;;6.45;5.85;;;;;;;5.62;67.50;102639.19;5043616;28;20060;-68
2023/01/27 09:35:47;;;;;;;6.85;5.82;;;;;;;5.62;67.40;102645.56;5040269;28;20026;-67
2023/01/27 09:38:14;;;;;;;6.10;5.57;;;;;;;5.62;67.50;102647.47;5037156;28;20073;-67
2023/01/27 09:40:52;;;;;;;7.03;6.35;;;;;;;5.65;68.39;102655.34;5050318;28;20135;-67
2023/01/27 09:43:25;;;;;;;6.18;5.57;;;;;;;5.55;67.49;102650.06;5050043;28;20041;-67
2023/01/27 09:46:09;;;;;;;7.18;5.60;;;;;;;5.56;67.36;102653.66;5045554;28;20035;-67
2023/01/27 09:48:40;;;;;;;5.88;5.00;;;;;;;5.64;70.33;102643.47;5048974;28;20040;-68
2023/01/27 09:51:34;;;;;;;6.47;5.88;;;;;;;5.64;67.97;102650.88;5049467;28;20036;-68
2023/01/27 09:54:26;;;;;;;5.85;5.32;;;;;;;5.61;67.99;102654.00;5036186;28;20025;-68
2023/01/27 09:57:12;;;;;;;5.90;5.38;;;;;;;5.61;67.98;102660.34;5040714;28;20758;-70
2023/01/27 10:00:19;;;;;;;6.47;5.80;;;;;;;5.65;68.20;102660.88;5045566;28;20033;-66
2023/01/27 10:02:57;;;;;;;5.70;5.10;;;;;;;5.64;67.54;102654.50;5046556;28;20024;-67
2023/01/27 10:05:38;;;;;;;6.13;5.25;;;;;;;5.62;67.13;102664.84;5040272;28;20069;-67
2023/01/27 10:08:30;;;;;;;5.75;5.15;;;;;;;5.62;67.07;102664.84;5048913;28;20029;-66
2023/01/27 10:11:19;;;;;;;5.28;4.88;;;;;;;5.56;67.56;102673.81;5039267;28;20043;-67
2023/01/27 10:13:54;;;;;;;5.97;4.85;;;;;;;5.58;67.15;102665.34;5049886;28;20047;-68
2023/01/27 10:16:53;;;;;;;5.75;5.20;;;;;;;5.60;67.56;102664.16;5049454;28;20048;-68
2023/01/27 10:19:57;;;;;;;6.60;5.97;;;;;;;5.57;67.29;102671.91;5050117;28;20120;-68
2023/01/27 10:22:41;;;;;;;6.20;5.60;;;;;;;5.52;67.37;102669.69;5049465;28;20746;-68
2023/01/27 10:25:19;;;;;;;6.53;4.95;;;;;;;5.54;67.11;102659.38;5048502;28;20051;-67
2023/01/27 10:27:55;;;;;;;6.57;5.28;;;;;;;5.59;67.22;102659.69;5044862;28;20036;-62
2023/01/27 10:30:31;;;;;;;5.95;5.45;;;;;;;5.61;66.87;102668.63;5044811;28;20056;-67
2023/01/27 10:33:18;;;;;;;5.63;5.00;;;;;;;5.61;67.18;102652.09;5039852;28;20028;-66
2023/01/27 10:36:05;;;;;;;5.95;5.43;;;;;;;5.63;66.75;102661.06;5048361;28;20102;-66
2023/01/27 10:39:02;;;;;;;5.93;5.43;;;;;;;5.63;67.07;102654.69;5042261;28;20045;-67
2023/01/27 10:41:55;;;;;;;6.13;5.53;;;;;;;5.64;67.42;102660.00;5005390;28;20551;-67
2023/01/27 10:44:34;;;;;;;5.75;5.22;;;;;;;5.64;66.58;102657.25;5033529;28;20036;-67
2023/01/27 10:47:12;;;;;;;6.20;5.18;;;;;;;5.63;67.30;102660.19;5047226;28;20484;-67
2023/01/27 10:49:48;;;;;;;6.70;5.97;;;;;;;5.64;67.19;102657.25;5040621;28;20036;-66
2023/01/27 10:52:18;;;;;;;6.35;5.75;;;;;;;5.63;67.01;102660.19;5044336;28;20081;-66
2023/01/27 10:54:54;;;;;;;6.30;5.70;;;;;;;5.66;67.17;102657.94;5046523;28;20086;-66
2023/01/27 10:57:28;;;;;;;5.90;5.20;;;;;;;5.68;66.75;102655.00;5044927;28;20037;-66
2023/01/27 11:00:05;;;;;;;8.05;5.82;;;;;;;5.66;66.92;102652.44;5045537;28;20078;-65
2023/01/27 11:02:41;;;;;;;6.05;5.47;;;;;;;5.66;67.37;102655.19;5043542;28;20029;-65
2023/01/27 11:05:10;;;;;;;5.63;5.13;;;;;;;5.64;66.59;102646.22;5046587;28;20037;-65
2023/01/27 11:07:49;;;;;;;5.88;5.38;;;;;;;5.67;67.03;102642.28;5034269;28;20048;-65
2023/01/27 11:10:17;;;;;;;5.97;5.45;;;;;;;5.64;66.84;102648.13;5043941;28;20041;-66
2023/01/27 11:12:47;;;;;;;6.47;5.20;;;;;;;5.66;66.61;102649.69;5042093;28;20059;-65
2023/01/27 11:15:36;;;;;;;5.57;4.97;;;;;;;5.66;67.09;102641.41;5045572;28;20029;-68
2023/01/27 11:18:16;;;;;;;6.32;5.45;;;;;;;5.65;67.61;102647.94;5035036;28;20045;-68
2023/01/27 11:20:44;;;;;;;6.57;5.13;;;;;;;5.65;67.27;102645.19;5043314;28;20029;-67
2023/01/27 11:23:16;;;;;;;5.68;5.18;;;;;;;5.63;66.66;102641.78;5050933;28;20044;-66
2023/01/27 11:25:49;;;;;;;5.82;5.15;;;;;;;5.66;67.34;102643.31;5045608;28;20047;-65
2023/01/27 11:28:36;;;;;;;5.88;5.32;;;;;;;5.69;67.52;102640.19;5046024;28;20075;-68
2023/01/27 11:31:13;;;;;;;5.32;4.82;;;;;;;5.70;66.62;102641.03;5047846;28;20040;-66
2023/01/27 11:33:45;;;;;;;5.43;4.97;;;;;;;5.67;66.67;102647.78;5048833;28;20432;-68
2023/01/27 11:36:10;;;;;;;5.72;5.22;;;;;;;5.62;66.37;102655.72;5049021;28;20029;-67
2023/01/27 11:38:35;;;;;;;6.60;5.85;;;;;;;5.60;67.15;102642.13;5048191;28;20522;-67
2023/01/27 11:41:01;;;;;;;6.53;5.47;;;;;;;5.59;66.91;102645.06;5047915;28;20044;-66
2023/01/27 11:43:28;;;;;;;6.70;5.72;;;;;;;5.60;67.21;102644.00;5041865;28;20025;-66
2023/01/27 11:46:01;;;;;;;6.15;5.55;;;;;;;5.62;67.02;102644.72;5049577;28;20036;-66
2023/01/27 11:48:41;;;;;;;5.50;5.00;;;;;;;5.64;67.01;102632.47;5048481;28;20029;-66
2023/01/27 11:51:19;;;;;;;5.78;5.28;;;;;;;5.69;67.26;102633.81;5046878;28;20029;-67
2023/01/27 11:53:47;;;;;;;6.20;5.60;;;;;;;5.72;67.96;102630.72;5047645;28;20024;-66
2023/01/27 11:56:17;;;;;;;6.57;5.82;;;;;;;5.75;67.25;102636.75;5044218;28;20025;-65
2023/01/27 11:58:54;;;;;;;6.80;5.97;;;;;;;5.80;67.46;102636.19;5046843;28;20108;-65
2023/01/27 12:01:32;;;;;;;6.00;5.40;;;;;;;5.80;67.37;102627.94;5036702;28;20072;-60
2023/01/27 12:04:06;;;;;;;6.93;6.22;;;;;;;5.77;66.83;102634.66;5039025;28;20037;-65
2023/01/27 12:06:39;;;;;;;6.97;6.32;;;;;;;5.78;67.54;102638.28;5038932;28;20090;-65
2023/01/27 12:09:05;;;;;;;7.22;6.60;;;;;;;5.80;67.72;102627.94;5043977;28;20033;-64